Westbrook, Minnesota
Current Conditions -  °F | °C
As of 7:33 PM on Tuesday 25 Nov 2014 (Local Time) from KTKC Reporting Station
Overcast Overcast  
Wind Chill: 23°   Ceiling: 8000
Heat Index: 31°   Visibility: 10mi
Dew Point: 21°   Wind: 8mph
Humidity: 67%   Direction: 160°SSE
Pressure: 29.9"   Gusts: NA
Location:  44.04°N, 95.44°W
Report Text: KTKC 260133Z AUTO 16007KT 10SM SCT065 BKN080 OVC090 M01/M06 A2990 RMK AO2 T10081063
Loading
Personal Weather Stations






























Interactive Weather Map New forecast layout! Learn more

10-Day Weather Forecast

Advertisements
Track Severe Weather on mobile